createdAt,value
2022-12-13T00:00:15.394Z,43.95
2022-12-13T00:02:42.033Z,44.30
2022-12-13T00:05:08.877Z,44.05
2022-12-13T00:07:36.369Z,44.20
2022-12-13T00:10:03.337Z,43.92
2022-12-13T00:12:30.527Z,44.06
2022-12-13T00:14:57.077Z,44.04
2022-12-13T00:17:23.800Z,43.96
2022-12-13T00:19:50.380Z,43.99
2022-12-13T00:22:18.179Z,44.03
2022-12-13T00:24:46.270Z,43.78
2022-12-13T00:27:13.091Z,43.87
2022-12-13T00:29:39.742Z,43.94
2022-12-13T00:32:06.424Z,43.76
2022-12-13T00:34:33.028Z,43.86
2022-12-13T00:36:59.724Z,43.97
2022-12-13T00:39:33.874Z,43.63
2022-12-13T00:42:01.698Z,43.65
2022-12-13T00:44:28.272Z,43.59
2022-12-13T00:46:54.999Z,43.79
2022-12-13T00:49:22.010Z,43.46
2022-12-13T00:51:49.739Z,43.76
2022-12-13T00:54:16.576Z,43.78
2022-12-13T00:56:43.211Z,43.75
2022-12-13T00:59:09.981Z,43.47
2022-12-13T01:01:36.717Z,43.73
2022-12-13T01:04:04.553Z,43.73
2022-12-13T01:06:36.968Z,43.45
2022-12-13T01:09:04.620Z,43.46
2022-12-13T01:11:31.268Z,43.42
2022-12-13T01:13:57.944Z,43.46
2022-12-13T01:16:24.515Z,43.60
2022-12-13T01:18:51.153Z,43.46
2022-12-13T01:21:25.375Z,43.27
2022-12-13T01:23:53.204Z,43.46
2022-12-13T01:26:20.660Z,43.41
2022-12-13T01:28:47.581Z,43.34
2022-12-13T01:31:15.310Z,43.33
2022-12-13T01:33:42.036Z,43.12
2022-12-13T01:36:09.716Z,43.25
2022-12-13T01:38:37.794Z,43.38
2022-12-13T01:41:16.661Z,43.32
2022-12-13T01:43:44.656Z,43.47
2022-12-13T01:46:11.613Z,43.21
2022-12-13T01:48:39.829Z,43.35
2022-12-13T01:51:06.616Z,43.21
2022-12-13T01:53:33.901Z,43.21
2022-12-13T01:56:20.742Z,43.20
2022-12-13T01:58:47.364Z,43.24
2022-12-13T02:01:13.905Z,43.04
2022-12-13T02:03:40.548Z,43.02
2022-12-13T02:06:14.759Z,42.98
2022-12-13T02:08:51.077Z,43.25
2022-12-13T02:11:19.277Z,43.10
2022-12-13T02:13:45.892Z,43.21
2022-12-13T02:16:12.539Z,43.09
2022-12-13T02:18:57.804Z,42.92
2022-12-13T02:21:45.917Z,43.20
2022-12-13T02:24:31.086Z,43.06
2022-12-13T02:27:30.355Z,42.98
2022-12-13T02:30:16.429Z,42.85
2022-12-13T02:32:45.792Z,42.94
2022-12-13T02:35:24.124Z,42.99
2022-12-13T02:37:56.880Z,43.14
2022-12-13T02:40:24.400Z,42.90
2022-12-13T02:42:53.529Z,43.02
2022-12-13T02:45:21.404Z,42.96
2022-12-13T02:47:48.034Z,42.86
2022-12-13T02:50:14.670Z,43.01
2022-12-13T02:52:43.165Z,43.08
2022-12-13T02:55:12.964Z,42.80
2022-12-13T02:57:40.873Z,42.76
2022-12-13T03:00:09.001Z,42.85
2022-12-13T03:02:36.191Z,42.86
2022-12-13T03:05:30.406Z,42.86
2022-12-13T03:08:01.893Z,42.80
2022-12-13T03:10:29.969Z,42.73
2022-12-13T03:13:18.325Z,42.81
2022-12-13T03:15:46.837Z,42.60
2022-12-13T03:18:19.988Z,42.63
2022-12-13T03:20:51.167Z,42.69
2022-12-13T03:23:18.430Z,42.55
2022-12-13T03:25:45.345Z,42.58
2022-12-13T03:28:12.727Z,42.42
2022-12-13T03:30:39.589Z,42.42
2022-12-13T03:33:06.197Z,42.62
2022-12-13T03:35:44.721Z,42.66
2022-12-13T03:38:21.818Z,42.61
2022-12-13T03:40:50.905Z,42.31
2022-12-13T03:43:22.188Z,42.39
2022-12-13T03:45:50.082Z,42.36
2022-12-13T03:48:22.183Z,42.34
2022-12-13T03:50:50.330Z,42.38
2022-12-13T03:53:22.461Z,42.27
2022-12-13T03:56:00.870Z,42.30
2022-12-13T03:58:36.568Z,42.20
2022-12-13T04:01:07.468Z,42.09
2022-12-13T04:03:34.366Z,42.35
2022-12-13T04:06:00.935Z,42.16
2022-12-13T04:08:27.653Z,42.24
2022-12-13T04:10:54.231Z,42.25
2022-12-13T04:13:33.198Z,42.37
2022-12-13T04:16:00.442Z,42.11
2022-12-13T04:18:26.977Z,42.30
2022-12-13T04:20:53.523Z,42.34
2022-12-13T04:23:25.363Z,42.24
2022-12-13T04:25:58.473Z,42.12
2022-12-13T04:28:25.090Z,41.95
2022-12-13T04:30:53.052Z,41.97
2022-12-13T04:33:21.370Z,42.16
2022-12-13T04:35:48.207Z,41.93
2022-12-13T04:38:14.826Z,42.15
2022-12-13T04:40:41.388Z,41.88
2022-12-13T04:43:08.018Z,42.11
2022-12-13T04:45:34.620Z,41.97
2022-12-13T04:48:01.264Z,41.85
2022-12-13T04:50:27.891Z,41.80
2022-12-13T04:52:54.499Z,41.89
2022-12-13T04:55:21.021Z,41.82
2022-12-13T04:57:47.625Z,41.86
2022-12-13T05:00:14.630Z,42.18
2022-12-13T05:02:41.645Z,41.83
2022-12-13T05:05:09.399Z,41.80
2022-12-13T05:07:42.713Z,41.81
2022-12-13T05:10:10.194Z,41.93
2022-12-13T05:12:36.750Z,41.76
2022-12-13T05:15:03.687Z,41.78
2022-12-13T05:17:30.377Z,41.68
2022-12-13T05:19:56.973Z,41.93
2022-12-13T05:22:23.526Z,41.73
2022-12-13T05:24:50.744Z,41.74
2022-12-13T05:27:25.966Z,41.63
2022-12-13T05:30:03.834Z,41.58
2022-12-13T05:32:43.268Z,41.71
2022-12-13T05:35:21.968Z,41.40
2022-12-13T05:37:54.567Z,41.54
2022-12-13T05:40:22.360Z,41.51
2022-12-13T05:42:48.924Z,41.55
2022-12-13T05:45:16.625Z,41.42
2022-12-13T05:47:43.493Z,41.54
2022-12-13T05:50:10.771Z,41.60
2022-12-13T05:52:37.313Z,41.45
2022-12-13T05:55:04.072Z,41.51
2022-12-13T05:57:30.719Z,41.49
2022-12-13T05:59:57.478Z,41.33
2022-12-13T06:02:24.371Z,41.24
2022-12-13T06:04:51.127Z,41.36
2022-12-13T06:07:17.855Z,41.35
2022-12-13T06:09:44.513Z,41.23
2022-12-13T06:12:31.231Z,41.29
2022-12-13T06:15:01.186Z,41.11
2022-12-13T06:17:35.236Z,41.25
2022-12-13T06:20:01.972Z,41.27
2022-12-13T06:22:28.532Z,41.03
2022-12-13T06:24:55.313Z,41.26
2022-12-13T06:27:21.942Z,41.11
2022-12-13T06:29:48.594Z,40.94
2022-12-13T06:32:15.194Z,41.21
2022-12-13T06:34:41.797Z,40.85
2022-12-13T06:37:10.316Z,41.13
2022-12-13T06:39:38.041Z,40.95
2022-12-13T06:42:08.972Z,40.83
2022-12-13T06:44:35.736Z,41.06
2022-12-13T06:47:10.418Z,40.82
2022-12-13T06:49:39.856Z,40.89
2022-12-13T06:52:06.709Z,40.91
2022-12-13T06:54:33.385Z,41.03
2022-12-13T06:56:59.997Z,40.83
2022-12-13T06:59:26.650Z,40.90
2022-12-13T07:01:53.415Z,40.90
2022-12-13T07:04:29.943Z,40.49
2022-12-13T07:07:01.064Z,39.63
2022-12-13T07:09:31.892Z,39.83
2022-12-13T07:11:58.789Z,39.63
2022-12-13T07:14:25.418Z,39.41
2022-12-13T07:16:52.035Z,39.47
2022-12-13T07:19:23.864Z,39.49
2022-12-13T07:21:51.564Z,39.54
2022-12-13T07:24:18.117Z,39.17
2022-12-13T07:26:44.759Z,39.44
2022-12-13T07:29:11.345Z,39.18
2022-12-13T07:31:38.015Z,39.02
2022-12-13T07:34:04.575Z,39.40
2022-12-13T07:36:31.298Z,39.29
2022-12-13T07:38:58.433Z,39.29
2022-12-13T07:41:25.743Z,39.51
2022-12-13T07:43:55.002Z,39.36
2022-12-13T07:46:31.946Z,39.27
2022-12-13T07:49:03.923Z,39.02
2022-12-13T07:51:30.606Z,39.33
2022-12-13T07:53:57.517Z,39.27
2022-12-13T07:56:24.145Z,39.08
2022-12-13T07:58:51.064Z,39.15
2022-12-13T08:01:18.713Z,39.02
2022-12-13T08:03:47.562Z,39.13
2022-12-13T08:06:14.198Z,38.85
2022-12-13T08:08:41.935Z,38.87
2022-12-13T08:11:09.749Z,38.72
2022-12-13T08:13:36.730Z,38.63
2022-12-13T08:16:04.570Z,38.65
2022-12-13T08:18:51.088Z,38.97
2022-12-13T08:21:52.397Z,38.71
2022-12-13T08:24:04.630Z,38.58
2022-12-13T08:26:31.259Z,38.49
2022-12-13T08:28:57.872Z,38.58
2022-12-13T08:31:24.454Z,38.79
2022-12-13T08:33:51.098Z,38.42
2022-12-13T08:36:17.836Z,38.48
2022-12-13T08:38:44.946Z,38.37
2022-12-13T08:41:11.771Z,38.57
2022-12-13T08:43:38.309Z,38.23
2022-12-13T08:46:05.106Z,38.40
2022-12-13T08:48:31.906Z,38.17
2022-12-13T08:51:02.394Z,38.22
2022-12-13T08:53:40.548Z,38.37
2022-12-13T08:56:15.889Z,38.15
2022-12-13T08:58:52.238Z,38.31
2022-12-13T09:01:29.509Z,38.23
2022-12-13T09:04:02.206Z,38.02
2022-12-13T09:06:36.500Z,37.89
2022-12-13T09:09:10.676Z,37.66
2022-12-13T09:11:44.768Z,37.84
2022-12-13T09:14:14.089Z,37.51
2022-12-13T09:16:50.447Z,37.57
2022-12-13T09:19:26.172Z,37.43
2022-12-13T09:21:53.425Z,37.66
2022-12-13T09:24:29.773Z,37.54
2022-12-13T09:27:09.198Z,37.72
2022-12-13T09:29:38.027Z,37.59
2022-12-13T09:32:05.475Z,37.26
2022-12-13T09:34:35.198Z,37.60
2022-12-13T09:37:02.179Z,37.24
2022-12-13T09:39:29.539Z,37.25
2022-12-13T09:42:01.471Z,37.11
2022-12-13T09:44:42.782Z,37.35
2022-12-13T09:47:35.063Z,36.99
2022-12-13T09:50:15.344Z,37.17
2022-12-13T09:52:43.239Z,36.95
2022-12-13T09:55:21.493Z,37.22
2022-12-13T09:57:48.375Z,36.94
2022-12-13T10:00:17.962Z,36.81
2022-12-13T10:02:44.693Z,36.91
2022-12-13T10:05:22.841Z,36.87
2022-12-13T10:07:59.631Z,37.06
2022-12-13T10:10:31.249Z,36.58
2022-12-13T10:13:06.524Z,36.84
2022-12-13T10:15:42.658Z,36.52
2022-12-13T10:18:17.592Z,36.64
2022-12-13T10:20:45.508Z,36.63
2022-12-13T10:23:52.581Z,36.48
2022-12-13T10:26:08.553Z,36.23
2022-12-13T10:28:41.670Z,36.48
2022-12-13T10:31:08.291Z,36.42
2022-12-13T10:33:38.409Z,36.54
2022-12-13T10:36:30.199Z,36.41
2022-12-13T10:38:56.805Z,36.13
2022-12-13T10:41:31.050Z,36.36
2022-12-13T10:44:08.052Z,36.20
2022-12-13T10:46:38.620Z,35.98
2022-12-13T10:49:13.466Z,36.16
2022-12-13T10:51:42.884Z,36.21
2022-12-13T10:54:17.359Z,36.24
2022-12-13T10:56:45.920Z,36.06
2022-12-13T10:59:23.464Z,36.17
2022-12-13T11:01:50.467Z,35.98
2022-12-13T11:04:29.771Z,36.01
2022-12-13T11:06:57.454Z,36.14
2022-12-13T11:09:25.207Z,35.92
2022-12-13T11:11:58.730Z,35.65
2022-12-13T11:14:38.953Z,35.63
2022-12-13T11:17:09.529Z,35.73
2022-12-13T11:19:39.265Z,35.60
2022-12-13T11:22:05.948Z,35.53
2022-12-13T11:24:33.587Z,35.45
2022-12-13T11:27:01.176Z,35.36
2022-12-13T11:29:46.170Z,35.48
2022-12-13T11:32:22.659Z,35.46
2022-12-13T11:35:04.877Z,35.47
2022-12-13T11:37:34.303Z,35.13
2022-12-13T11:40:04.433Z,35.04
2022-12-13T11:42:37.440Z,35.32
2022-12-13T11:45:13.271Z,35.06
2022-12-13T11:47:43.902Z,34.91
2022-12-13T11:50:33.340Z,34.60
2022-12-13T11:53:07.401Z,35.04
2022-12-13T11:55:40.967Z,35.03
2022-12-13T11:58:16.401Z,34.98
2022-12-13T12:00:48.325Z,34.74
2022-12-13T12:03:24.010Z,34.86
2022-12-13T12:06:01.930Z,35.00
2022-12-13T12:08:32.726Z,34.50
2022-12-13T12:11:12.414Z,34.64
2022-12-13T12:13:51.159Z,34.68
2022-12-13T12:16:33.957Z,34.58
2022-12-13T12:19:01.678Z,34.71
2022-12-13T12:22:12.837Z,34.74
2022-12-13T12:24:30.009Z,34.30
2022-12-13T12:26:59.488Z,34.60
2022-12-13T12:29:28.926Z,34.60
2022-12-13T12:32:08.214Z,34.37
2022-12-13T12:34:38.408Z,34.40
2022-12-13T12:37:13.696Z,34.63
2022-12-13T12:39:44.668Z,34.53
2022-12-13T12:42:14.137Z,34.67
2022-12-13T12:44:50.569Z,34.61
2022-12-13T12:48:07.129Z,34.31
2022-12-13T12:50:37.976Z,34.33
2022-12-13T12:53:10.445Z,34.17
2022-12-13T12:55:43.234Z,34.27
2022-12-13T12:58:29.234Z,34.27
2022-12-13T13:00:56.033Z,34.01
2022-12-13T13:03:26.197Z,34.00
2022-12-13T13:06:03.116Z,34.19
2022-12-13T13:08:36.073Z,34.20
2022-12-13T13:11:03.832Z,34.00
2022-12-13T13:13:36.610Z,34.18
2022-12-13T13:16:32.824Z,33.90
2022-12-13T13:19:06.448Z,34.01
2022-12-13T13:21:33.959Z,33.68
2022-12-13T13:24:07.467Z,34.03
2022-12-13T13:26:36.823Z,33.90
2022-12-13T13:29:27.609Z,34.19
2022-12-13T13:32:02.477Z,34.24
2022-12-13T13:34:33.510Z,34.09
2022-12-13T13:37:01.448Z,33.75
2022-12-13T13:39:27.972Z,34.02
2022-12-13T13:42:13.585Z,34.09
2022-12-13T13:44:46.086Z,33.64
2022-12-13T13:47:22.415Z,33.83
2022-12-13T13:49:55.838Z,33.77
2022-12-13T13:52:32.365Z,33.89
2022-12-13T13:55:17.825Z,33.97
2022-12-13T13:58:11.084Z,34.02
2022-12-13T14:01:00.193Z,34.47
2022-12-13T14:04:05.129Z,34.24
2022-12-13T14:07:10.223Z,34.25
2022-12-13T14:09:49.168Z,34.36
2022-12-13T14:12:41.011Z,34.27
2022-12-13T14:15:29.133Z,34.12
2022-12-13T14:18:02.047Z,34.44
2022-12-13T14:20:41.322Z,34.31
2022-12-13T14:23:14.252Z,34.30
2022-12-13T14:26:04.296Z,34.20
2022-12-13T14:28:51.876Z,34.21
2022-12-13T14:31:23.790Z,34.28
2022-12-13T14:33:56.738Z,34.40
2022-12-13T14:36:35.836Z,34.37
2022-12-13T14:39:24.709Z,34.80
2022-12-13T14:41:56.545Z,34.74
2022-12-13T14:44:30.847Z,34.88
2022-12-13T14:47:00.910Z,35.17
2022-12-13T14:49:54.578Z,35.54
2022-12-13T14:52:27.800Z,35.70
2022-12-13T14:55:04.656Z,35.65
2022-12-13T14:57:33.755Z,36.04
2022-12-13T15:00:22.044Z,36.51
2022-12-13T15:02:54.655Z,36.57
2022-12-13T15:05:29.355Z,36.66
2022-12-13T15:07:56.624Z,36.88
2022-12-13T15:10:40.128Z,37.12
2022-12-13T15:13:07.365Z,37.14
2022-12-13T15:15:36.569Z,37.24
2022-12-13T15:18:10.202Z,37.07
2022-12-13T15:20:41.874Z,36.89
2022-12-13T15:23:21.040Z,36.87
2022-12-13T15:26:03.387Z,37.15
2022-12-13T15:28:34.695Z,36.88
2022-12-13T15:31:02.154Z,36.80
2022-12-13T15:33:34.363Z,36.89
2022-12-13T15:36:24.550Z,36.90
2022-12-13T15:38:54.767Z,37.13
2022-12-13T15:41:34.284Z,37.26
2022-12-13T15:44:28.494Z,36.98
2022-12-13T15:47:08.812Z,37.02
2022-12-13T15:49:55.582Z,36.78
2022-12-13T15:52:34.646Z,37.12
2022-12-13T15:55:02.932Z,36.57
2022-12-13T15:57:32.081Z,36.75
2022-12-13T16:00:15.416Z,36.86
2022-12-13T16:03:08.955Z,36.78
2022-12-13T16:05:39.444Z,36.73
2022-12-13T16:08:30.499Z,36.48
2022-12-13T16:10:58.350Z,36.61
2022-12-13T16:13:33.638Z,36.75
2022-12-13T16:16:10.175Z,36.89
2022-12-13T16:19:00.429Z,36.70
2022-12-13T16:21:28.178Z,36.70
2022-12-13T16:23:54.869Z,36.80
2022-12-13T16:26:24.205Z,36.64
2022-12-13T16:28:51.174Z,36.87
2022-12-13T16:31:24.375Z,36.75
2022-12-13T16:33:51.610Z,36.99
2022-12-13T16:36:18.398Z,37.28
2022-12-13T16:38:45.863Z,37.11
2022-12-13T16:41:15.549Z,36.96
2022-12-13T16:55:41.473Z,37.26
2022-12-13T16:58:14.935Z,37.48
2022-12-13T17:00:45.179Z,37.59
2022-12-13T17:03:15.553Z,37.67
2022-12-13T17:05:44.079Z,37.46
2022-12-13T17:08:13.204Z,37.53
2022-12-13T17:10:40.957Z,37.91
2022-12-13T17:13:12.687Z,38.14
2022-12-13T17:15:41.615Z,37.94
2022-12-13T17:18:10.685Z,37.83
2022-12-13T17:20:37.553Z,37.97
2022-12-13T17:23:05.338Z,38.18
2022-12-13T17:25:32.235Z,38.19
2022-12-13T17:27:59.287Z,38.17
2022-12-13T17:30:26.060Z,38.55
2022-12-13T17:32:53.097Z,38.27
2022-12-13T17:35:19.997Z,38.68
2022-12-13T17:37:46.791Z,38.55
2022-12-13T17:40:13.586Z,39.04
2022-12-13T17:42:40.305Z,38.91
2022-12-13T17:45:07.471Z,38.83
2022-12-13T17:47:34.263Z,39.08
2022-12-13T17:50:01.077Z,38.82
2022-12-13T17:52:27.820Z,38.90
2022-12-13T17:54:54.767Z,39.03
2022-12-13T17:57:21.462Z,38.96
2022-12-13T17:59:48.380Z,38.95
2022-12-13T18:02:17.391Z,39.17
2022-12-13T18:04:44.566Z,39.14
2022-12-13T18:07:11.281Z,38.99
2022-12-13T18:09:38.089Z,39.28
2022-12-13T18:12:04.989Z,39.14
2022-12-13T18:14:31.838Z,39.35
2022-12-13T18:16:58.553Z,39.21
2022-12-13T18:19:30.309Z,39.20
2022-12-13T18:21:57.166Z,39.22
2022-12-13T18:24:23.981Z,39.04
2022-12-13T18:26:50.824Z,39.28
2022-12-13T18:29:17.945Z,38.89
2022-12-13T18:31:44.835Z,39.14
2022-12-13T18:34:11.813Z,38.91
2022-12-13T18:36:39.682Z,39.11
2022-12-13T18:39:06.945Z,38.90
2022-12-13T18:41:34.256Z,39.41
2022-12-13T18:44:03.401Z,39.09
2022-12-13T18:46:32.401Z,39.15
2022-12-13T18:48:59.439Z,39.23
2022-12-13T18:51:26.513Z,39.14
2022-12-13T18:53:54.542Z,39.35
2022-12-13T18:56:21.413Z,39.47
2022-12-13T18:58:57.127Z,39.67
2022-12-13T19:01:27.968Z,39.26
2022-12-13T19:03:55.055Z,39.45
2022-12-13T19:06:25.530Z,39.54
2022-12-13T19:08:55.661Z,39.55
2022-12-13T19:11:29.790Z,39.65
2022-12-13T19:13:57.196Z,39.59
2022-12-13T19:16:25.619Z,39.79
2022-12-13T19:18:52.995Z,39.80
2022-12-13T19:21:21.139Z,39.68
2022-12-13T19:23:55.871Z,39.76
2022-12-13T19:26:25.328Z,39.56
2022-12-13T19:28:51.997Z,39.89
2022-12-13T19:31:18.969Z,39.66
2022-12-13T19:33:46.540Z,39.85
2022-12-13T19:36:14.865Z,40.05
2022-12-13T19:38:42.165Z,40.02
2022-12-13T19:41:10.126Z,40.20
2022-12-13T19:43:37.078Z,40.05
2022-12-13T19:46:04.199Z,40.33
2022-12-13T19:48:33.178Z,40.37
2022-12-13T19:51:02.226Z,40.05
2022-12-13T19:53:30.226Z,40.57
2022-12-13T19:55:57.405Z,40.30
2022-12-13T19:58:24.934Z,40.61
2022-12-13T20:00:52.845Z,40.71
2022-12-13T20:03:23.370Z,40.67
2022-12-13T20:05:56.478Z,40.60
2022-12-13T20:08:23.358Z,40.38
2022-12-13T20:11:04.649Z,40.76
2022-12-13T20:13:33.090Z,40.87
2022-12-13T20:16:00.315Z,40.50
2022-12-13T20:18:27.126Z,40.95
2022-12-13T20:21:15.091Z,41.09
2022-12-13T20:23:49.454Z,41.26
2022-12-13T20:26:19.967Z,41.08
2022-12-13T20:28:47.383Z,41.25
2022-12-13T20:31:16.752Z,41.22
2022-12-13T20:33:43.560Z,41.37
2022-12-13T20:36:23.993Z,41.35
2022-12-13T20:38:52.969Z,41.27
2022-12-13T20:41:19.618Z,41.59
2022-12-13T20:43:48.287Z,41.50
2022-12-13T20:46:15.482Z,41.80
2022-12-13T20:48:42.840Z,41.61
2022-12-13T20:51:10.322Z,41.94
2022-12-13T20:53:40.698Z,41.90
2022-12-13T20:56:08.562Z,41.82
2022-12-13T20:58:39.749Z,41.94
2022-12-13T21:01:08.781Z,41.85
2022-12-13T21:03:35.360Z,41.80
2022-12-13T21:06:01.926Z,41.89
2022-12-13T21:08:47.138Z,42.23
2022-12-13T21:11:26.154Z,42.08
2022-12-13T21:14:00.978Z,42.38
2022-12-13T21:16:38.472Z,42.23
2022-12-13T21:19:06.225Z,42.56
2022-12-13T21:21:32.943Z,42.46
2022-12-13T21:23:59.676Z,42.76
2022-12-13T21:26:30.115Z,42.56
2022-12-13T21:29:02.281Z,43.09
2022-12-13T21:31:29.211Z,42.98
2022-12-13T21:33:56.838Z,42.84
2022-12-13T21:36:24.469Z,42.91
2022-12-13T21:38:58.583Z,42.75
2022-12-13T21:41:30.204Z,43.03
2022-12-13T21:43:58.649Z,42.97
2022-12-13T21:46:47.502Z,43.17
2022-12-13T21:49:14.710Z,43.58
2022-12-13T21:51:47.445Z,43.34
2022-12-13T21:54:14.841Z,43.37
2022-12-13T21:57:00.321Z,43.22
2022-12-13T21:59:27.729Z,43.35
2022-12-13T22:02:17.614Z,43.50
2022-12-13T22:04:44.531Z,43.43
2022-12-13T22:07:14.253Z,43.68
2022-12-13T22:09:41.121Z,43.38
2022-12-13T22:12:08.627Z,43.47
2022-12-13T22:14:35.468Z,43.73
2022-12-13T22:17:02.039Z,43.71
2022-12-13T22:19:28.821Z,43.91
2022-12-13T22:21:55.562Z,43.87
2022-12-13T22:24:22.192Z,43.77
2022-12-13T22:26:48.714Z,43.82
2022-12-13T22:29:15.481Z,43.85
2022-12-13T22:31:42.168Z,44.01
2022-12-13T22:34:09.029Z,43.88
2022-12-13T22:36:35.696Z,43.97
2022-12-13T22:39:02.641Z,44.04
2022-12-13T22:41:29.334Z,44.04
2022-12-13T22:43:56.266Z,44.13
2022-12-13T22:46:22.882Z,44.25
2022-12-13T22:48:51.873Z,44.04
2022-12-13T22:51:19.045Z,44.36
2022-12-13T22:53:46.380Z,44.51
2022-12-13T22:56:14.094Z,44.47
2022-12-13T22:58:40.761Z,44.51
2022-12-13T23:01:11.384Z,44.45
2022-12-13T23:03:38.717Z,44.62
2022-12-13T23:06:09.129Z,44.39
2022-12-13T23:08:41.798Z,44.68
2022-12-13T23:11:28.660Z,44.62
2022-12-13T23:13:56.451Z,44.59
2022-12-13T23:16:23.693Z,44.85
2022-12-13T23:18:50.320Z,44.76
2022-12-13T23:21:17.528Z,44.55
2022-12-13T23:23:44.162Z,44.65
2022-12-13T23:26:12.224Z,44.76
2022-12-13T23:28:38.974Z,44.85
2022-12-13T23:31:05.795Z,44.83
2022-12-13T23:33:32.464Z,44.91
2022-12-13T23:36:01.207Z,44.61
2022-12-13T23:38:30.944Z,44.82
2022-12-13T23:41:01.445Z,44.82
2022-12-13T23:43:29.192Z,45.18
2022-12-13T23:45:55.929Z,44.96
2022-12-13T23:48:26.913Z,45.08
2022-12-13T23:50:54.013Z,45.31
2022-12-13T23:53:20.866Z,45.23
2022-12-13T23:55:48.826Z,45.37
2022-12-13T23:58:16.461Z,45.19
